createdAt,value
2023-03-31T00:00:14.940Z,3.70
2023-03-31T00:03:02.874Z,3.63
2023-03-31T00:05:53.475Z,2.40
2023-03-31T00:08:42.909Z,2.00
2023-03-31T00:11:29.770Z,2.13
2023-03-31T00:14:19.385Z,4.00
2023-03-31T00:17:05.851Z,1.80
2023-03-31T00:19:52.436Z,3.63
2023-03-31T00:22:42.449Z,3.13
2023-03-31T00:25:28.855Z,2.43
2023-03-31T00:28:15.434Z,2.63
2023-03-31T00:31:03.862Z,2.53
2023-03-31T00:33:50.952Z,1.70
2023-03-31T00:36:47.369Z,3.23
2023-03-31T00:39:35.381Z,2.53
2023-03-31T00:42:22.444Z,5.90
2023-03-31T00:45:15.452Z,4.40
2023-03-31T00:48:05.488Z,3.87
2023-03-31T00:50:55.683Z,2.30
2023-03-31T00:53:42.415Z,4.30
2023-03-31T00:56:34.599Z,2.53
2023-03-31T00:59:27.551Z,3.13
2023-03-31T01:02:15.875Z,2.03
2023-03-31T01:05:02.752Z,3.43
2023-03-31T01:07:51.847Z,4.47
2023-03-31T01:10:43.355Z,4.00
2023-03-31T01:13:31.984Z,2.77
2023-03-31T01:16:19.239Z,2.90
2023-03-31T01:19:14.392Z,7.40
2023-03-31T01:22:20.311Z,4.07
2023-03-31T01:25:23.534Z,4.43
2023-03-31T01:28:29.579Z,3.00
2023-03-31T01:31:23.379Z,3.83
2023-03-31T01:34:47.277Z,3.90
2023-03-31T01:37:58.327Z,6.67
2023-03-31T01:40:47.703Z,6.33
2023-03-31T01:43:48.111Z,3.00
2023-03-31T01:47:14.350Z,3.30
2023-03-31T01:50:11.204Z,10.83
2023-03-31T01:53:18.358Z,2.50
2023-03-31T01:56:07.875Z,4.20
2023-03-31T01:59:08.206Z,6.73
2023-03-31T02:02:09.729Z,2.73
2023-03-31T02:05:03.098Z,4.90
2023-03-31T02:07:55.304Z,4.43
2023-03-31T02:10:45.686Z,3.07
2023-03-31T02:13:34.884Z,5.17
2023-03-31T02:16:26.768Z,3.97
2023-03-31T02:19:18.827Z,5.07
2023-03-31T02:22:10.648Z,4.63
2023-03-31T02:24:59.024Z,4.23
2023-03-31T02:27:51.724Z,3.53
2023-03-31T02:30:58.829Z,3.97
2023-03-31T02:33:48.848Z,2.40
2023-03-31T02:36:38.690Z,5.40
2023-03-31T02:39:31.710Z,1.43
2023-03-31T02:42:19.673Z,1.80
2023-03-31T02:45:40.018Z,1.87
2023-03-31T02:48:40.720Z,2.00
2023-03-31T02:51:37.303Z,2.97
2023-03-31T02:54:51.643Z,5.20
2023-03-31T02:58:06.561Z,5.93
2023-03-31T03:01:11.284Z,2.20
2023-03-31T03:04:11.947Z,2.63
2023-03-31T03:07:17.937Z,5.93
2023-03-31T03:10:14.439Z,5.53
2023-03-31T03:13:04.032Z,2.83
2023-03-31T03:16:05.845Z,4.47
2023-03-31T03:19:00.646Z,2.60
2023-03-31T03:21:47.642Z,3.50
2023-03-31T03:24:34.521Z,4.30
2023-03-31T03:27:24.440Z,8.17
2023-03-31T03:30:12.786Z,1.97
2023-03-31T03:32:59.193Z,1.80
2023-03-31T03:35:46.208Z,2.93
2023-03-31T03:38:32.644Z,2.83
2023-03-31T03:41:18.985Z,5.73
2023-03-31T03:44:05.729Z,2.27
2023-03-31T03:46:52.282Z,5.00
2023-03-31T03:49:38.600Z,3.00
2023-03-31T03:52:24.969Z,4.60
2023-03-31T03:55:12.226Z,3.20
2023-03-31T03:57:58.801Z,6.10
2023-03-31T04:00:45.378Z,3.67
2023-03-31T04:03:32.110Z,5.23
2023-03-31T04:06:18.505Z,6.17
2023-03-31T04:09:05.348Z,10.23
2023-03-31T04:11:51.661Z,3.97
2023-03-31T04:14:38.101Z,2.97
2023-03-31T04:17:32.668Z,3.53
2023-03-31T04:20:19.818Z,4.73
2023-03-31T04:23:09.581Z,3.00
2023-03-31T04:25:55.979Z,5.63
2023-03-31T04:28:50.580Z,3.23
2023-03-31T04:31:38.822Z,2.90
2023-03-31T04:34:34.529Z,3.50
2023-03-31T04:37:20.751Z,3.83
2023-03-31T04:40:08.129Z,4.73
2023-03-31T04:42:54.574Z,3.90
2023-03-31T04:45:41.277Z,3.47
2023-03-31T04:48:27.626Z,7.17
2023-03-31T04:51:15.492Z,3.73
2023-03-31T04:54:02.794Z,7.37
2023-03-31T04:56:49.080Z,6.23
2023-03-31T04:59:35.816Z,5.83
2023-03-31T05:02:25.768Z,5.13
2023-03-31T05:05:12.314Z,7.20
2023-03-31T05:07:58.810Z,6.27
2023-03-31T05:10:45.283Z,4.93
2023-03-31T05:13:31.576Z,5.23
2023-03-31T05:16:18.320Z,7.80
2023-03-31T05:19:04.905Z,5.77
2023-03-31T05:21:51.353Z,5.10
2023-03-31T05:24:37.884Z,6.20
2023-03-31T05:27:24.338Z,8.03
2023-03-31T05:30:11.310Z,5.77
2023-03-31T05:32:58.184Z,12.13
2023-03-31T05:35:44.784Z,6.50
2023-03-31T05:38:31.810Z,5.70
2023-03-31T05:41:18.571Z,6.37
2023-03-31T05:44:07.755Z,7.03
2023-03-31T05:46:57.564Z,7.00
2023-03-31T05:49:44.238Z,5.53
2023-03-31T05:52:32.881Z,11.37
2023-03-31T05:55:19.465Z,7.83
2023-03-31T05:58:06.757Z,4.10
2023-03-31T06:01:06.043Z,11.10
2023-03-31T06:03:52.891Z,5.03
2023-03-31T06:06:39.621Z,4.80
2023-03-31T06:09:26.364Z,5.57
2023-03-31T06:12:12.632Z,5.97
2023-03-31T06:14:59.039Z,9.20
2023-03-31T06:17:45.287Z,9.67
2023-03-31T06:20:31.598Z,7.30
2023-03-31T06:23:18.104Z,6.30
2023-03-31T06:26:08.806Z,5.33
2023-03-31T06:28:55.676Z,9.50
2023-03-31T06:31:41.991Z,9.00
2023-03-31T06:34:28.824Z,10.90
2023-03-31T06:37:15.405Z,9.03
2023-03-31T06:40:01.707Z,6.27
2023-03-31T06:42:47.994Z,7.97
2023-03-31T06:45:34.622Z,7.67
2023-03-31T06:48:23.299Z,14.70
2023-03-31T06:51:10.357Z,10.77
2023-03-31T06:53:56.599Z,10.87
2023-03-31T06:56:43.174Z,11.37
2023-03-31T06:59:29.965Z,8.97
2023-03-31T07:02:16.529Z,6.53
2023-03-31T07:05:03.032Z,8.63
2023-03-31T07:07:49.741Z,9.40
2023-03-31T07:10:36.278Z,9.80
2023-03-31T07:13:23.099Z,9.17
2023-03-31T07:16:09.913Z,7.13
2023-03-31T07:18:59.681Z,5.83
2023-03-31T07:21:46.191Z,4.57
2023-03-31T07:24:32.425Z,6.37
2023-03-31T07:27:18.764Z,4.43
2023-03-31T07:30:07.447Z,4.80
2023-03-31T07:32:54.774Z,3.00
2023-03-31T07:35:41.844Z,5.67
2023-03-31T07:38:28.394Z,4.00
2023-03-31T07:41:17.903Z,4.37
2023-03-31T07:44:04.631Z,3.00
2023-03-31T07:46:51.342Z,2.13
2023-03-31T07:49:38.120Z,2.47
2023-03-31T07:52:24.784Z,2.63
2023-03-31T07:55:12.642Z,1.90
2023-03-31T07:57:58.966Z,1.90
2023-03-31T08:00:46.014Z,3.13
2023-03-31T08:03:32.494Z,4.27
2023-03-31T08:06:21.861Z,3.63
2023-03-31T08:09:08.228Z,1.80
2023-03-31T08:11:54.616Z,1.40
2023-03-31T08:14:42.950Z,2.87
2023-03-31T08:17:29.377Z,1.20
2023-03-31T08:20:15.916Z,1.63
2023-03-31T08:23:02.586Z,1.50
2023-03-31T08:25:49.073Z,3.43
2023-03-31T08:28:35.730Z,2.63
2023-03-31T08:31:25.988Z,3.73
2023-03-31T08:34:15.057Z,2.40
2023-03-31T08:37:02.924Z,1.40
2023-03-31T08:39:50.260Z,4.17
2023-03-31T08:42:46.544Z,1.67
2023-03-31T08:45:42.966Z,2.50
2023-03-31T08:48:46.135Z,3.47
2023-03-31T08:51:41.295Z,1.30
2023-03-31T08:54:37.158Z,3.67
2023-03-31T08:57:32.082Z,1.80
2023-03-31T09:00:19.467Z,2.30
2023-03-31T09:03:18.823Z,1.47
2023-03-31T09:06:09.028Z,4.80
2023-03-31T09:09:01.765Z,1.83
2023-03-31T09:11:54.872Z,6.23
2023-03-31T09:14:52.176Z,5.33
2023-03-31T09:17:46.321Z,6.30
2023-03-31T09:20:36.777Z,2.97
2023-03-31T09:23:34.907Z,4.30
2023-03-31T09:26:40.471Z,2.57
2023-03-31T09:29:49.432Z,3.50
2023-03-31T09:32:38.800Z,2.90
2023-03-31T09:35:26.559Z,2.50
2023-03-31T09:38:14.521Z,5.20
2023-03-31T09:41:03.278Z,3.17
2023-03-31T09:43:51.634Z,7.13
2023-03-31T09:46:39.014Z,1.80
2023-03-31T09:49:28.605Z,4.63
2023-03-31T09:52:31.726Z,2.00
2023-03-31T09:56:00.609Z,3.27
2023-03-31T09:58:46.874Z,1.97
2023-03-31T10:01:36.548Z,3.70
2023-03-31T10:04:25.830Z,4.20
2023-03-31T10:07:13.458Z,3.00
2023-03-31T10:10:00.548Z,4.07
2023-03-31T10:12:55.071Z,3.17
2023-03-31T10:15:42.436Z,5.77
2023-03-31T10:18:37.999Z,3.40
2023-03-31T10:21:36.745Z,3.50
2023-03-31T10:24:23.536Z,5.33
2023-03-31T10:27:30.317Z,5.63
2023-03-31T10:30:22.711Z,3.53
2023-03-31T10:33:22.654Z,5.83
2023-03-31T10:36:17.207Z,2.90
2023-03-31T10:39:07.643Z,1.50
2023-03-31T10:41:54.054Z,0.93
2023-03-31T10:44:40.328Z,2.07
2023-03-31T10:47:33.096Z,1.73
2023-03-31T10:50:19.259Z,3.63
2023-03-31T10:53:12.969Z,1.20
2023-03-31T10:56:16.386Z,2.13
2023-03-31T10:59:34.901Z,3.97
2023-03-31T11:02:48.154Z,2.10
2023-03-31T11:05:52.329Z,2.37
2023-03-31T11:08:52.124Z,3.57
2023-03-31T11:12:04.696Z,1.77
2023-03-31T11:15:13.350Z,2.97
2023-03-31T11:18:18.708Z,1.83
2023-03-31T11:21:27.933Z,1.60
2023-03-31T11:24:35.510Z,0.93
2023-03-31T11:27:41.629Z,2.63
2023-03-31T11:30:51.239Z,2.03
2023-03-31T11:33:46.657Z,1.03
2023-03-31T11:37:02.745Z,0.43
2023-03-31T11:40:16.107Z,0.20
2023-03-31T11:43:28.424Z,0.53
2023-03-31T11:46:24.794Z,0.30
2023-03-31T11:49:22.816Z,1.30
2023-03-31T11:52:16.690Z,0.50
2023-03-31T11:55:15.612Z,0.47
2023-03-31T11:58:16.293Z,2.10
2023-03-31T12:01:18.805Z,1.97
2023-03-31T12:04:11.481Z,1.53
2023-03-31T12:07:03.921Z,1.77
2023-03-31T12:10:21.826Z,3.07
2023-03-31T12:13:36.145Z,2.60
2023-03-31T12:16:46.345Z,1.13
2023-03-31T12:19:51.563Z,0.53
2023-03-31T12:22:43.253Z,0.90
2023-03-31T12:25:56.268Z,1.70
2023-03-31T12:28:45.630Z,1.60
2023-03-31T12:31:33.470Z,2.40
2023-03-31T12:34:22.201Z,2.33
2023-03-31T12:37:24.503Z,1.60
2023-03-31T12:40:29.765Z,0.93
2023-03-31T12:43:26.576Z,5.53
2023-03-31T12:46:32.570Z,2.93
2023-03-31T12:49:50.528Z,6.13
2023-03-31T12:52:56.573Z,2.50
2023-03-31T12:55:47.549Z,6.43
2023-03-31T12:58:48.684Z,5.27
2023-03-31T13:01:35.137Z,1.97
2023-03-31T13:04:26.577Z,4.20
2023-03-31T13:07:28.362Z,1.17
2023-03-31T13:10:19.039Z,4.03
2023-03-31T13:13:13.425Z,0.80
2023-03-31T13:16:01.991Z,1.00
2023-03-31T13:18:53.683Z,1.13
2023-03-31T13:21:54.414Z,1.07
2023-03-31T13:24:41.512Z,0.57
2023-03-31T13:27:34.271Z,3.83
2023-03-31T13:30:52.020Z,1.50
2023-03-31T13:33:59.887Z,1.87
2023-03-31T13:37:25.170Z,0.40
2023-03-31T13:40:40.009Z,0.63
2023-03-31T13:43:52.738Z,2.50
2023-03-31T13:46:45.664Z,2.60
2023-03-31T13:49:54.045Z,1.47
2023-03-31T13:53:07.248Z,2.43
2023-03-31T13:56:21.951Z,1.00
2023-03-31T13:59:28.558Z,0.77
2023-03-31T14:02:33.453Z,4.03
2023-03-31T14:05:30.628Z,3.20
2023-03-31T14:08:39.853Z,1.97
2023-03-31T14:11:33.012Z,0.40
2023-03-31T14:14:19.730Z,1.33
2023-03-31T14:17:06.636Z,1.90
2023-03-31T14:20:08.607Z,3.50
2023-03-31T14:22:55.542Z,3.23
2023-03-31T14:25:53.250Z,2.77
2023-03-31T14:29:11.170Z,2.13
2023-03-31T14:32:19.844Z,2.33
2023-03-31T14:35:28.795Z,3.73
2023-03-31T14:38:20.906Z,1.37
2023-03-31T14:41:15.903Z,1.93
2023-03-31T14:44:04.374Z,1.07
2023-03-31T14:46:51.436Z,1.13
2023-03-31T14:49:39.170Z,3.30
2023-03-31T14:52:30.451Z,2.47
2023-03-31T14:55:21.638Z,1.17
2023-03-31T14:58:11.890Z,4.80
2023-03-31T15:00:59.346Z,1.10
2023-03-31T15:03:47.286Z,1.70
2023-03-31T15:06:34.019Z,0.60
2023-03-31T15:09:40.495Z,1.20
2023-03-31T15:12:29.472Z,1.70
2023-03-31T15:15:19.670Z,0.47
2023-03-31T15:18:06.550Z,4.67
2023-03-31T15:20:53.667Z,0.50
2023-03-31T15:23:40.642Z,0.93
2023-03-31T15:26:41.648Z,1.90
2023-03-31T15:29:36.820Z,0.93
2023-03-31T15:32:43.410Z,2.33
2023-03-31T15:35:35.722Z,2.17
2023-03-31T15:38:27.506Z,2.43
2023-03-31T15:41:16.930Z,1.47
2023-03-31T15:44:27.008Z,1.83
2023-03-31T15:47:22.225Z,1.47
2023-03-31T15:50:10.039Z,2.70
2023-03-31T15:53:01.319Z,1.37
2023-03-31T15:55:47.819Z,4.63
2023-03-31T15:58:55.824Z,1.90
2023-03-31T16:01:45.870Z,2.23
2023-03-31T16:04:33.173Z,1.40
2023-03-31T16:07:22.378Z,3.23
2023-03-31T16:10:23.213Z,0.40
2023-03-31T16:13:18.396Z,3.17
2023-03-31T16:16:13.439Z,2.33
2023-03-31T16:19:10.039Z,4.03
2023-03-31T16:22:01.876Z,2.53
2023-03-31T16:24:49.378Z,1.90
2023-03-31T16:27:41.979Z,1.73
2023-03-31T16:30:39.609Z,1.37
2023-03-31T16:33:26.634Z,2.73
2023-03-31T16:36:16.053Z,1.33
2023-03-31T16:39:05.216Z,3.90
2023-03-31T16:41:51.691Z,0.70
2023-03-31T16:44:37.996Z,1.90
2023-03-31T16:50:31.729Z,1.40
2023-03-31T16:53:20.543Z,0.93
2023-03-31T16:56:08.205Z,1.40
2023-03-31T16:58:55.114Z,0.63
2023-03-31T17:01:41.797Z,0.60
2023-03-31T17:04:28.222Z,3.13
2023-03-31T17:07:14.864Z,1.07
2023-03-31T17:10:01.071Z,3.97
2023-03-31T17:12:47.628Z,0.73
2023-03-31T17:15:36.434Z,1.20
2023-03-31T17:18:23.288Z,2.53
2023-03-31T17:21:13.624Z,1.20
2023-03-31T17:24:01.852Z,1.33
2023-03-31T17:26:49.548Z,2.57
2023-03-31T17:29:35.864Z,1.97
2023-03-31T17:32:22.690Z,1.80
2023-03-31T17:35:10.433Z,1.17
2023-03-31T17:37:57.308Z,1.00
2023-03-31T17:40:43.672Z,1.27
2023-03-31T17:43:30.339Z,0.83
2023-03-31T17:46:17.854Z,1.93
2023-03-31T17:49:04.476Z,2.90
2023-03-31T17:51:51.180Z,4.80
2023-03-31T17:54:37.863Z,4.50
2023-03-31T17:57:24.116Z,1.03
2023-03-31T18:04:49.000Z,2.97
2023-03-31T18:07:36.178Z,0.80
2023-03-31T18:10:22.796Z,1.13
2023-03-31T18:13:09.869Z,1.53
2023-03-31T18:15:56.236Z,2.37
2023-03-31T18:18:43.841Z,2.17
2023-03-31T18:21:30.675Z,1.90
2023-03-31T18:24:18.709Z,1.10
2023-03-31T18:27:06.486Z,0.87
2023-03-31T18:29:52.987Z,1.13
2023-03-31T18:32:39.530Z,0.90
2023-03-31T18:35:27.428Z,1.07
2023-03-31T18:38:14.012Z,0.80
2023-03-31T18:41:00.635Z,0.40
2023-03-31T18:43:47.794Z,1.67
2023-03-31T18:46:34.415Z,0.53
2023-03-31T18:49:21.206Z,0.77
2023-03-31T18:52:07.472Z,1.43
2023-03-31T18:54:54.027Z,0.80
2023-03-31T18:57:40.912Z,2.07
2023-03-31T19:00:27.352Z,0.70
2023-03-31T19:03:13.836Z,1.63
2023-03-31T19:06:05.961Z,2.13
2023-03-31T19:08:54.598Z,1.53
2023-03-31T19:11:41.756Z,2.13
2023-03-31T19:14:28.121Z,1.67
2023-03-31T19:17:14.595Z,1.70
2023-03-31T19:20:00.907Z,0.73
2023-03-31T19:22:50.115Z,0.73
2023-03-31T19:25:36.933Z,0.87
2023-03-31T19:28:24.623Z,1.40
2023-03-31T19:31:11.543Z,2.23
2023-03-31T19:33:58.520Z,3.97
2023-03-31T19:36:44.963Z,4.23
2023-03-31T19:39:31.739Z,2.47
2023-03-31T19:42:18.537Z,2.33
2023-03-31T19:45:05.476Z,1.50
2023-03-31T19:47:51.760Z,3.90
2023-03-31T19:50:38.488Z,0.93
2023-03-31T19:53:25.890Z,1.57
2023-03-31T19:56:15.780Z,8.13
2023-03-31T19:59:02.729Z,3.47
2023-03-31T20:01:49.342Z,3.10
2023-03-31T20:04:36.898Z,1.70
2023-03-31T20:07:23.673Z,1.47
2023-03-31T20:10:13.788Z,1.20
2023-03-31T20:13:00.204Z,2.20
2023-03-31T20:15:46.908Z,8.20
2023-03-31T20:18:34.732Z,2.17
2023-03-31T20:21:23.911Z,1.40
2023-03-31T20:24:16.329Z,2.00
2023-03-31T20:27:03.050Z,5.43
2023-03-31T20:29:49.786Z,4.97
2023-03-31T20:32:38.936Z,1.87
2023-03-31T20:35:25.495Z,5.53
2023-03-31T20:38:11.612Z,2.13
2023-03-31T20:40:57.905Z,3.17
2023-03-31T20:43:45.167Z,5.17
2023-03-31T20:46:31.715Z,1.90
2023-03-31T20:49:18.110Z,2.10
2023-03-31T20:52:04.675Z,2.00
2023-03-31T20:54:51.221Z,3.70
2023-03-31T20:57:37.837Z,1.97
2023-03-31T21:00:24.508Z,3.23
2023-03-31T21:03:11.258Z,2.20
2023-03-31T21:06:01.804Z,3.07
2023-03-31T21:08:52.276Z,1.43
2023-03-31T21:11:40.557Z,2.53
2023-03-31T21:14:30.521Z,1.70
2023-03-31T21:17:17.238Z,1.67
2023-03-31T21:20:04.344Z,3.90
2023-03-31T21:22:50.809Z,1.63
2023-03-31T21:25:37.120Z,2.13
2023-03-31T21:28:28.945Z,1.13
2023-03-31T21:31:18.270Z,2.67
2023-03-31T21:34:05.309Z,2.63
2023-03-31T21:36:51.657Z,2.27
2023-03-31T21:39:37.947Z,4.30
2023-03-31T21:42:24.785Z,0.97
2023-03-31T21:45:12.211Z,1.37
2023-03-31T21:47:58.543Z,1.80
2023-03-31T21:50:45.975Z,1.97
2023-03-31T21:53:32.640Z,1.53
2023-03-31T21:56:19.407Z,1.63
2023-03-31T21:59:06.013Z,4.33
2023-03-31T22:01:52.693Z,6.30
2023-03-31T22:04:39.554Z,1.27
2023-03-31T22:07:26.256Z,1.37
2023-03-31T22:10:13.120Z,1.43
2023-03-31T22:12:59.773Z,0.97
2023-03-31T22:15:47.498Z,1.20
2023-03-31T22:18:33.988Z,1.87
2023-03-31T22:21:26.092Z,1.17
2023-03-31T22:24:15.718Z,1.60
2023-03-31T22:27:03.109Z,2.10
2023-03-31T22:29:49.602Z,0.73
2023-03-31T22:32:36.060Z,1.03
2023-03-31T22:35:25.910Z,1.23
2023-03-31T22:38:15.596Z,2.33
2023-03-31T22:41:02.330Z,0.80
2023-03-31T22:43:48.791Z,0.90
2023-03-31T22:46:36.166Z,1.07
2023-03-31T22:49:22.626Z,0.90
2023-03-31T22:52:09.280Z,1.23
2023-03-31T22:54:55.578Z,0.90
2023-03-31T22:57:42.633Z,2.87
2023-03-31T23:00:29.050Z,0.50
2023-03-31T23:03:15.566Z,1.03
2023-03-31T23:06:06.548Z,0.57
2023-03-31T23:08:53.278Z,0.80
2023-03-31T23:11:39.657Z,0.93
2023-03-31T23:14:26.958Z,6.50
2023-03-31T23:17:13.510Z,1.33
2023-03-31T23:20:00.591Z,1.47
2023-03-31T23:22:46.947Z,1.50
2023-03-31T23:25:33.681Z,0.60
2023-03-31T23:28:20.349Z,2.17
2023-03-31T23:31:09.987Z,1.17
2023-03-31T23:33:57.723Z,0.53
2023-03-31T23:36:44.179Z,1.03
2023-03-31T23:39:30.333Z,2.13
2023-03-31T23:42:20.456Z,0.40
2023-03-31T23:45:09.010Z,2.10
2023-03-31T23:47:55.603Z,0.87
2023-03-31T23:50:42.219Z,3.63
2023-03-31T23:53:29.288Z,1.87
2023-03-31T23:56:16.986Z,2.00
2023-03-31T23:59:03.955Z,0.63
